Terminal Aerodrome Forecast
Issued by NWS Tallahassee, FL

Home | Current Version | Previous Version | Text Only | Print | Product List | Glossary On
Versions: 1 2 3 4 5 6 7 8 9 10 11 12 13 14 15 16 17 18 19 20 21 22 23 24 25
000
FTUS42 KTAE 291722
TAFTLH
TAF
KTLH 291722Z 2918/3018 20007KT P6SM FEW040 SCT250
     FM301100 14002KT 3SM BR BKN250
     FM301500 17007KT P6SM BKN250=

USA.gov is the U.S. government's official web portal to all federal, state and local government web resources and services.